createdAt,value
2023-04-23T00:02:19.656Z,100129.91
2023-04-23T00:04:54.335Z,100115.63
2023-04-23T00:07:24.882Z,100124.25
2023-04-23T00:10:00.442Z,100134.69
2023-04-23T00:12:32.004Z,100127.88
2023-04-23T00:15:02.775Z,100127.84
2023-04-23T00:17:33.425Z,100137.31
2023-04-23T00:20:03.178Z,100137.34
2023-04-23T00:22:33.812Z,100128.03
2023-04-23T00:25:06.519Z,100130.59
2023-04-23T00:27:36.300Z,100118.75
2023-04-23T00:30:07.081Z,100076.94
2023-04-23T00:32:36.942Z,100133.25
2023-04-23T00:35:07.644Z,100123.97
2023-04-23T00:37:37.419Z,100131.69
2023-04-23T00:40:11.820Z,100127.44
2023-04-23T00:42:42.417Z,100122.38
2023-04-23T00:45:13.000Z,100130.13
2023-04-23T00:47:43.811Z,100125.09
2023-04-23T00:50:13.895Z,100130.25
2023-04-23T00:52:43.696Z,100131.22
2023-04-23T00:55:16.392Z,100132.88
2023-04-23T00:57:46.452Z,100132.03
2023-04-23T01:00:18.059Z,100109.00
2023-04-23T01:02:48.525Z,100127.72
2023-04-23T01:05:20.282Z,100110.66
2023-04-23T01:07:50.936Z,100126.03
2023-04-23T01:10:23.852Z,100098.75
2023-04-23T01:12:53.637Z,100126.91
2023-04-23T01:15:23.692Z,100114.91
2023-04-23T01:17:53.885Z,100115.78
2023-04-23T01:20:23.723Z,100132.84
2023-04-23T01:22:56.475Z,100130.25
2023-04-23T01:25:26.294Z,100133.63
2023-04-23T01:27:56.125Z,100133.66
2023-04-23T01:30:27.213Z,100134.53
2023-04-23T01:32:58.035Z,100112.47
2023-04-23T01:35:29.001Z,100108.25
2023-04-23T01:38:04.438Z,100126.19
2023-04-23T01:40:34.238Z,100115.94
2023-04-23T01:43:04.453Z,100136.44
2023-04-23T01:45:34.329Z,100138.13
2023-04-23T01:48:04.465Z,100142.44
2023-04-23T01:50:34.546Z,100132.22
2023-04-23T01:53:06.919Z,100145.88
2023-04-23T01:55:40.674Z,100121.19
2023-04-23T01:58:10.525Z,100138.25
2023-04-23T02:00:40.260Z,100112.63
2023-04-23T02:03:10.173Z,100128.00
2023-04-23T02:05:41.714Z,100156.19
2023-04-23T02:08:14.402Z,100150.25
2023-04-23T02:10:44.240Z,100154.50
2023-04-23T02:13:14.943Z,100163.06
2023-04-23T02:15:45.376Z,100161.38
2023-04-23T02:18:15.337Z,100157.94
2023-04-23T02:20:45.237Z,100159.66
2023-04-23T02:23:17.701Z,100163.94
2023-04-23T02:25:47.471Z,100155.41
2023-04-23T02:28:17.207Z,100159.72
2023-04-23T02:30:48.085Z,100155.47
2023-04-23T02:33:18.474Z,100154.59
2023-04-23T02:35:48.325Z,100158.03
2023-04-23T02:38:21.415Z,100157.19
2023-04-23T02:40:52.669Z,100159.72
2023-04-23T02:43:22.432Z,100163.13
2023-04-23T02:45:52.194Z,100162.28
2023-04-23T02:48:22.512Z,100140.09
2023-04-23T02:50:52.496Z,100168.28
2023-04-23T02:53:24.899Z,100152.03
2023-04-23T02:55:54.662Z,100166.56
2023-04-23T02:58:24.437Z,100156.31
2023-04-23T03:00:56.692Z,100166.56
2023-04-23T03:03:32.057Z,100166.56
2023-04-23T03:06:04.325Z,100171.66
2023-04-23T03:08:37.028Z,100168.25
2023-04-23T03:11:06.879Z,100170.81
2023-04-23T03:13:36.688Z,100178.47
2023-04-23T03:16:06.750Z,100163.97
2023-04-23T03:18:37.415Z,100181.91
2023-04-23T03:21:07.383Z,100172.50
2023-04-23T03:23:39.747Z,100171.66
2023-04-23T03:26:09.525Z,100179.34
2023-04-23T03:28:39.278Z,100196.41
2023-04-23T03:31:09.083Z,100185.31
2023-04-23T03:33:38.896Z,100193.88
2023-04-23T03:36:09.025Z,100195.56
2023-04-23T03:38:41.394Z,100198.94
2023-04-23T03:41:11.371Z,100198.06
2023-04-23T03:43:43.974Z,100206.59
2023-04-23T03:46:21.651Z,100198.06
2023-04-23T03:48:51.544Z,100147.63
2023-04-23T03:51:28.337Z,100215.16
2023-04-23T03:54:00.919Z,100221.97
2023-04-23T03:56:38.360Z,100206.53
2023-04-23T03:59:23.871Z,100210.81
2023-04-23T04:01:56.087Z,100215.09
2023-04-23T04:04:28.823Z,100221.09
2023-04-23T04:07:00.540Z,100210.00
2023-04-23T04:09:33.366Z,100222.00
2023-04-23T04:12:04.683Z,100205.75
2023-04-23T04:14:34.557Z,100177.50
2023-04-23T04:17:04.272Z,100213.38
2023-04-23T04:19:34.031Z,100232.19
2023-04-23T04:22:04.167Z,100209.09
2023-04-23T04:24:36.561Z,100215.09
2023-04-23T04:27:07.552Z,100233.88
2023-04-23T04:29:37.377Z,100206.50
2023-04-23T04:32:07.140Z,100220.22
2023-04-23T04:34:38.538Z,100234.78
2023-04-23T04:37:10.156Z,100205.72
2023-04-23T04:39:42.857Z,100239.09
2023-04-23T04:42:13.243Z,100243.31
2023-04-23T04:44:43.895Z,100213.38
2023-04-23T04:47:13.747Z,100246.75
2023-04-23T04:49:43.450Z,100237.34
2023-04-23T04:52:13.204Z,100206.56
2023-04-23T04:54:45.523Z,100209.97
2023-04-23T04:57:15.234Z,100239.06
2023-04-23T04:59:44.988Z,100227.09
2023-04-23T05:02:14.822Z,100221.97
2023-04-23T05:04:44.751Z,100221.97
2023-04-23T05:07:14.570Z,100224.53
2023-04-23T05:09:46.944Z,100237.38
2023-04-23T05:12:16.691Z,100239.06
2023-04-23T05:14:46.746Z,100240.75
2023-04-23T05:17:16.442Z,100232.22
2023-04-23T05:19:46.181Z,100244.19
2023-04-23T05:22:15.983Z,100241.63
2023-04-23T05:24:48.285Z,100233.94
2023-04-23T05:27:18.027Z,100215.16
2023-04-23T05:29:47.846Z,100233.13
2023-04-23T05:32:17.857Z,100239.97
2023-04-23T05:34:47.706Z,100239.09
2023-04-23T05:37:17.436Z,100188.69
2023-04-23T05:39:49.709Z,100237.44
2023-04-23T05:42:19.423Z,100225.47
2023-04-23T05:44:49.131Z,100238.31
2023-04-23T05:47:18.883Z,100235.78
2023-04-23T05:49:48.746Z,100228.97
2023-04-23T05:52:18.678Z,100218.69
2023-04-23T05:54:51.136Z,100235.81
2023-04-23T05:57:21.162Z,100221.25
2023-04-23T05:59:50.875Z,100230.66
2023-04-23T06:02:23.235Z,100233.25
2023-04-23T06:04:54.533Z,100218.69
2023-04-23T06:07:24.507Z,100219.53
2023-04-23T06:09:56.967Z,100230.66
2023-04-23T06:12:26.714Z,100217.84
2023-04-23T06:14:56.567Z,100222.13
2023-04-23T06:17:26.356Z,100216.13
2023-04-23T06:19:56.521Z,100193.91
2023-04-23T06:22:26.255Z,100240.94
2023-04-23T06:24:58.549Z,100246.03
2023-04-23T06:27:28.333Z,100241.78
2023-04-23T06:30:02.970Z,100207.59
2023-04-23T06:32:32.724Z,100224.66
2023-04-23T06:35:02.756Z,100236.63
2023-04-23T06:37:33.563Z,100231.47
2023-04-23T06:40:06.152Z,100231.50
2023-04-23T06:42:35.985Z,100234.03
2023-04-23T06:45:23.087Z,100216.00
2023-04-23T06:47:55.022Z,100206.59
2023-04-23T06:50:24.821Z,100231.38
2023-04-23T06:52:56.460Z,100221.16
2023-04-23T06:55:29.314Z,100227.13
2023-04-23T06:57:59.414Z,100199.81
2023-04-23T07:00:29.252Z,100199.00
2023-04-23T07:02:59.472Z,100205.78
2023-04-23T07:05:29.440Z,100203.19
2023-04-23T07:07:59.184Z,100211.78
2023-04-23T07:10:31.526Z,100209.28
2023-04-23T07:13:01.749Z,100215.25
2023-04-23T07:15:31.517Z,100204.06
2023-04-23T07:18:01.286Z,100176.72
2023-04-23T07:20:31.104Z,100162.97
2023-04-23T07:23:01.279Z,100187.63
2023-04-23T07:25:33.942Z,100198.84
2023-04-23T07:28:04.225Z,100211.66
2023-04-23T07:30:34.195Z,100193.78
2023-04-23T07:33:03.994Z,100185.22
2023-04-23T07:35:33.838Z,100210.75
2023-04-23T07:38:04.414Z,100202.00
2023-04-23T07:40:37.239Z,100196.78
2023-04-23T07:43:07.016Z,100196.88
2023-04-23T07:45:36.745Z,100202.78
2023-04-23T07:48:06.716Z,100197.66
2023-04-23T07:50:36.477Z,100193.44
2023-04-23T07:53:06.501Z,100195.88
2023-04-23T07:55:38.892Z,100186.50
2023-04-23T07:58:08.640Z,100179.59
2023-04-23T08:00:38.877Z,100182.78
2023-04-23T08:03:08.722Z,100181.03
2023-04-23T08:05:41.298Z,100182.75
2023-04-23T08:08:11.305Z,100161.31
2023-04-23T08:10:43.943Z,100163.03
2023-04-23T08:13:13.974Z,100171.56
2023-04-23T08:15:43.760Z,100173.31
2023-04-23T08:18:13.519Z,100166.41
2023-04-23T08:20:43.382Z,100148.28
2023-04-23T08:23:13.604Z,100152.28
2023-04-23T08:25:46.270Z,100153.94
2023-04-23T08:28:16.669Z,100155.66
2023-04-23T08:30:46.592Z,100133.28
2023-04-23T08:33:16.694Z,100151.91
2023-04-23T08:35:46.410Z,100144.13
2023-04-23T08:38:16.276Z,100140.59
2023-04-23T08:40:50.263Z,100143.03
2023-04-23T08:43:22.754Z,100134.34
2023-04-23T08:45:52.740Z,100107.03
2023-04-23T08:48:22.717Z,100130.75
2023-04-23T08:50:52.573Z,100126.31
2023-04-23T08:53:24.029Z,100112.47
2023-04-23T08:55:58.530Z,100136.19
2023-04-23T08:58:28.558Z,100125.19
2023-04-23T09:00:59.022Z,100122.63
2023-04-23T09:03:29.130Z,100127.63
2023-04-23T09:05:59.185Z,100120.03
2023-04-23T09:08:29.230Z,100120.00
2023-04-23T09:11:04.581Z,100131.81
2023-04-23T09:13:34.793Z,100109.56
2023-04-23T09:16:04.656Z,100129.22
2023-04-23T09:18:34.744Z,100123.91
2023-04-23T09:21:05.659Z,100120.19
2023-04-23T09:23:38.609Z,100120.72
2023-04-23T09:26:11.613Z,100100.03
2023-04-23T09:28:42.643Z,100101.72
2023-04-23T09:31:16.310Z,100107.53
2023-04-23T09:33:47.256Z,100105.94
2023-04-23T09:36:19.391Z,100102.97
2023-04-23T09:38:51.375Z,100090.81
2023-04-23T09:41:30.145Z,100091.56
2023-04-23T09:44:01.234Z,100085.56
2023-04-23T09:46:39.767Z,100082.50
2023-04-23T09:49:15.858Z,100092.72
2023-04-23T09:51:49.206Z,100082.34
2023-04-23T09:54:23.921Z,100048.28
2023-04-23T09:57:00.375Z,100075.91
2023-04-23T09:59:46.623Z,100077.53
2023-04-23T10:02:19.241Z,100073.13
2023-04-23T10:05:03.412Z,100052.56
2023-04-23T10:07:40.925Z,100057.56
2023-04-23T10:10:12.113Z,100049.72
2023-04-23T10:12:54.354Z,100057.22
2023-04-23T10:15:28.220Z,100048.16
2023-04-23T10:17:59.376Z,100058.72
2023-04-23T10:20:29.259Z,100051.13
2023-04-23T10:23:02.511Z,100032.84
2023-04-23T10:25:32.891Z,100052.47
2023-04-23T10:28:07.826Z,100006.38
2023-04-23T10:30:40.020Z,100061.50
2023-04-23T10:33:22.461Z,100038.56
2023-04-23T10:35:59.673Z,100052.72
2023-04-23T10:38:30.696Z,100051.41
2023-04-23T10:41:03.197Z,100052.91
2023-04-23T10:43:35.794Z,100061.84
2023-04-23T10:46:05.674Z,100057.88
2023-04-23T10:49:08.364Z,100060.91
2023-04-23T10:54:12.875Z,100061.53
2023-04-23T10:56:43.170Z,100056.69
2023-04-23T10:59:24.330Z,100052.00
2023-04-23T11:01:54.143Z,100048.56
2023-04-23T11:04:25.949Z,100056.50
2023-04-23T11:07:11.643Z,100057.88
2023-04-23T11:09:44.686Z,100045.19
2023-04-23T11:12:15.873Z,100037.44
2023-04-23T11:14:50.274Z,99992.84
2023-04-23T11:17:21.551Z,100054.09
2023-04-23T11:20:14.168Z,100046.78
2023-04-23T11:22:45.992Z,100034.63
2023-04-23T11:25:17.862Z,100033.94
2023-04-23T11:27:49.162Z,100019.47
2023-04-23T11:30:24.806Z,100028.75
2023-04-23T11:32:55.798Z,100016.88
2023-04-23T11:35:28.754Z,100008.03
2023-04-23T11:37:59.255Z,100015.91
2023-04-23T11:40:31.238Z,100035.00
2023-04-23T11:43:01.093Z,100032.38
2023-04-23T11:45:33.484Z,100032.75
2023-04-23T11:48:04.015Z,100019.47
2023-04-23T11:50:35.743Z,100000.16
2023-04-23T11:53:08.097Z,100017.31
2023-04-23T11:55:38.336Z,100015.94
2023-04-23T11:58:08.079Z,100011.84
2023-04-23T12:00:40.429Z,100001.13
2023-04-23T12:03:10.316Z,100019.09
2023-04-23T12:05:48.165Z,100003.06
2023-04-23T12:08:20.359Z,100012.41
2023-04-23T12:10:52.805Z,99997.91
2023-04-23T12:13:25.019Z,100016.94
2023-04-23T12:15:59.269Z,100002.75
2023-04-23T12:18:31.012Z,99980.09
2023-04-23T12:21:08.141Z,100009.22
2023-04-23T12:23:38.481Z,100005.78
2023-04-23T12:26:13.870Z,100022.47
2023-04-23T12:28:49.201Z,99995.19
2023-04-23T12:31:26.056Z,100019.84
2023-04-23T12:34:05.498Z,100007.75
2023-04-23T12:36:35.969Z,100022.50
2023-04-23T12:39:24.481Z,100042.06
2023-04-23T12:41:56.800Z,100016.22
2023-04-23T12:44:26.634Z,100001.06
2023-04-23T12:47:04.977Z,100004.16
2023-04-23T12:49:35.984Z,99988.56
2023-04-23T12:52:07.413Z,99989.41
2023-04-23T12:54:39.312Z,100000.53
2023-04-23T12:57:10.697Z,100001.19
2023-04-23T12:59:41.061Z,99999.63
2023-04-23T13:02:13.918Z,100004.50
2023-04-23T13:04:43.794Z,99988.91
2023-04-23T13:07:14.110Z,99987.72
2023-04-23T13:09:44.066Z,99981.50
2023-04-23T13:12:14.079Z,99984.41
2023-04-23T13:14:43.800Z,99971.84
2023-04-23T13:17:16.131Z,99975.13
2023-04-23T13:19:46.027Z,99956.28
2023-04-23T13:22:15.798Z,99966.53
2023-04-23T13:24:45.580Z,99956.66
2023-04-23T13:27:15.313Z,99941.19
2023-04-23T13:29:45.031Z,99938.88
2023-04-23T13:32:17.405Z,99953.72
2023-04-23T13:34:47.328Z,99937.06
2023-04-23T13:37:17.194Z,99939.31
2023-04-23T13:39:47.429Z,99937.81
2023-04-23T13:42:17.380Z,99917.84
2023-04-23T13:44:47.112Z,99928.28
2023-04-23T13:47:19.448Z,99931.66
2023-04-23T13:49:49.256Z,99932.47
2023-04-23T13:52:18.979Z,99913.16
2023-04-23T13:54:49.315Z,99928.78
2023-04-23T13:57:19.088Z,99903.88
2023-04-23T13:59:48.836Z,99892.88
2023-04-23T14:02:21.195Z,99902.69
2023-04-23T14:04:51.272Z,99885.25
2023-04-23T14:07:21.202Z,99909.13
2023-04-23T14:09:53.010Z,99913.50
2023-04-23T14:12:24.188Z,99886.31
2023-04-23T14:14:54.018Z,99908.41
2023-04-23T14:17:26.366Z,99851.03
2023-04-23T14:19:56.102Z,99888.06
2023-04-23T14:22:26.313Z,99891.19
2023-04-23T14:25:00.371Z,99881.91
2023-04-23T14:27:30.787Z,99886.28
2023-04-23T14:30:05.517Z,99874.41
2023-04-23T14:32:40.416Z,99885.00
2023-04-23T14:35:11.249Z,99878.22
2023-04-23T14:37:43.311Z,99888.28
2023-04-23T14:40:19.577Z,99862.16
2023-04-23T14:42:50.498Z,99862.25
2023-04-23T14:45:20.714Z,99872.31
2023-04-23T14:47:53.151Z,99839.41
2023-04-23T14:50:23.710Z,99862.69
2023-04-23T14:52:53.808Z,99848.91
2023-04-23T14:55:24.591Z,99833.56
2023-04-23T14:57:54.399Z,99826.44
2023-04-23T15:00:25.315Z,99828.28
2023-04-23T15:02:57.911Z,99847.41
2023-04-23T15:05:28.226Z,99839.25
2023-04-23T15:07:57.964Z,99833.56
2023-04-23T15:10:27.906Z,99823.19
2023-04-23T15:13:04.290Z,99822.22
2023-04-23T15:15:45.588Z,99821.94
2023-04-23T15:18:18.390Z,99814.44
2023-04-23T15:20:48.177Z,99817.22
2023-04-23T15:23:20.975Z,99825.56
2023-04-23T15:25:52.256Z,99819.59
2023-04-23T15:28:22.020Z,99811.91
2023-04-23T15:30:51.818Z,99780.53
2023-04-23T15:33:24.110Z,99808.72
2023-04-23T15:35:53.846Z,99791.31
2023-04-23T15:38:23.614Z,99797.41
2023-04-23T15:40:53.409Z,99799.09
2023-04-23T15:43:23.135Z,99795.47
2023-04-23T15:45:54.790Z,99775.97
2023-04-23T15:48:27.493Z,99789.13
2023-04-23T15:50:57.290Z,99787.03
2023-04-23T15:53:27.105Z,99790.50
2023-04-23T15:55:57.662Z,99782.28
2023-04-23T15:58:27.423Z,99778.00
2023-04-23T16:00:57.179Z,99776.31
2023-04-23T16:03:29.673Z,99779.63
2023-04-23T16:05:59.610Z,99753.97
2023-04-23T16:08:29.325Z,99783.97
2023-04-23T16:10:59.563Z,99769.34
2023-04-23T16:13:29.463Z,99768.31
2023-04-23T16:15:59.256Z,99776.91
2023-04-23T16:18:31.950Z,99768.16
2023-04-23T16:21:01.726Z,99761.19
2023-04-23T16:23:31.843Z,99755.75
2023-04-23T16:26:02.217Z,99753.88
2023-04-23T16:28:31.966Z,99771.38
2023-04-23T16:31:01.726Z,99750.31
2023-04-23T16:33:34.072Z,99783.16
2023-04-23T16:36:03.984Z,99782.97
2023-04-23T16:38:33.876Z,99766.06
2023-04-23T16:41:03.615Z,99761.19
2023-04-23T16:43:33.437Z,99757.03
2023-04-23T16:46:03.333Z,99744.03
2023-04-23T16:48:35.747Z,99732.69
2023-04-23T16:51:05.610Z,99742.84
2023-04-23T16:53:35.740Z,99729.34
2023-04-23T16:56:05.771Z,99729.53
2023-04-23T16:58:36.172Z,99735.78
2023-04-23T17:01:06.019Z,99731.41
2023-04-23T17:03:39.484Z,99730.38
2023-04-23T17:06:13.604Z,99721.72
2023-04-23T17:08:43.489Z,99728.59
2023-04-23T17:11:13.344Z,99721.94
2023-04-23T17:13:43.765Z,99687.28
2023-04-23T17:16:13.913Z,99721.03
2023-04-23T17:18:46.354Z,99724.44
2023-04-23T17:21:16.211Z,99719.88
2023-04-23T17:23:46.062Z,99704.94
2023-04-23T17:26:16.236Z,99709.84
2023-04-23T17:28:46.295Z,99704.06
2023-04-23T17:31:16.484Z,99703.19
2023-04-23T17:33:49.638Z,99709.78
2023-04-23T17:36:19.718Z,99706.53
2023-04-23T17:38:49.412Z,99700.03
2023-04-23T17:41:19.806Z,99684.59
2023-04-23T17:43:49.506Z,99691.41
2023-04-23T17:46:19.577Z,99680.25
2023-04-23T17:48:52.175Z,99684.81
2023-04-23T17:51:22.250Z,99689.09
2023-04-23T17:53:52.389Z,99665.31
2023-04-23T17:56:22.355Z,99680.63
2023-04-23T17:58:52.105Z,99680.63
2023-04-23T18:01:22.039Z,99681.47
2023-04-23T18:03:55.085Z,99680.50
2023-04-23T18:06:25.578Z,99672.00
2023-04-23T18:08:55.434Z,99666.78
2023-04-23T18:11:25.197Z,99661.56
2023-04-23T18:13:55.816Z,99656.41
2023-04-23T18:16:25.662Z,99660.59
2023-04-23T18:18:58.181Z,99657.19
2023-04-23T18:21:29.454Z,99659.00
2023-04-23T18:23:59.342Z,99653.31
2023-04-23T18:26:29.308Z,99654.13
2023-04-23T18:28:59.106Z,99644.00
2023-04-23T18:31:28.904Z,99614.31
2023-04-23T18:34:04.780Z,99646.38
2023-04-23T18:36:36.280Z,99645.75
2023-04-23T18:39:07.587Z,99645.88
2023-04-23T18:41:37.658Z,99654.53
2023-04-23T18:44:07.706Z,99655.41
2023-04-23T18:46:37.538Z,99631.78
2023-04-23T18:49:51.301Z,99608.78
2023-04-23T18:52:21.052Z,99658.16
2023-04-23T18:54:50.966Z,99646.19
2023-04-23T18:57:21.267Z,99665.63
2023-04-23T18:59:51.320Z,99647.66
2023-04-23T19:02:34.445Z,99670.94
2023-04-23T19:05:08.745Z,99675.47
2023-04-23T19:07:40.671Z,99680.75
2023-04-23T19:10:12.115Z,99659.44
2023-04-23T19:12:41.993Z,99668.84
2023-04-23T19:15:14.417Z,99620.84
2023-04-23T19:17:44.369Z,99675.50
2023-04-23T19:20:18.753Z,99667.88
2023-04-23T19:22:48.497Z,99673.56
2023-04-23T19:25:18.448Z,99673.50
2023-04-23T19:27:48.182Z,99662.59
2023-04-23T19:30:18.173Z,99635.09
2023-04-23T19:32:48.115Z,99645.28
2023-04-23T19:35:20.730Z,99631.69
2023-04-23T19:37:51.172Z,99654.44
2023-04-23T19:40:21.061Z,99631.44
2023-04-23T19:42:50.985Z,99651.97
2023-04-23T19:45:20.864Z,99636.97
2023-04-23T19:47:51.023Z,99603.81
2023-04-23T19:50:23.747Z,99634.16
2023-04-23T19:52:53.796Z,99626.66
2023-04-23T19:55:27.282Z,99630.78
2023-04-23T19:57:58.623Z,99630.78
2023-04-23T20:00:31.396Z,99628.22
2023-04-23T20:03:01.304Z,99580.50
2023-04-23T20:05:34.053Z,99561.69
2023-04-23T20:08:07.039Z,99523.06
2023-04-23T20:10:36.972Z,99571.28
2023-04-23T20:13:06.723Z,99583.38
2023-04-23T20:15:36.878Z,99587.72
2023-04-23T20:18:06.880Z,99611.44
2023-04-23T20:20:40.107Z,99661.25
2023-04-23T20:23:09.895Z,99678.66
2023-04-23T20:25:39.952Z,99685.06
2023-04-23T20:28:09.802Z,99671.47
2023-04-23T20:30:39.959Z,99662.28
2023-04-23T20:33:10.613Z,99691.56
2023-04-23T20:35:44.711Z,99641.38
2023-04-23T20:38:19.471Z,99625.28
2023-04-23T20:40:50.303Z,99667.47
2023-04-23T20:43:20.126Z,99663.88
2023-04-23T20:45:49.914Z,99655.97
2023-04-23T20:48:20.081Z,99644.06
2023-04-23T20:50:52.519Z,99645.94
2023-04-23T20:53:22.441Z,99637.34
2023-04-23T20:55:52.318Z,99598.94
2023-04-23T20:58:22.053Z,99628.66
2023-04-23T21:00:51.856Z,99625.88
2023-04-23T21:03:21.871Z,99617.13
2023-04-23T21:05:54.338Z,99598.13
2023-04-23T21:08:24.063Z,99598.97
2023-04-23T21:10:54.053Z,99597.94
2023-04-23T21:13:23.868Z,99574.75
2023-04-23T21:15:53.739Z,99570.50
2023-04-23T21:18:23.745Z,99580.47
2023-04-23T21:20:56.391Z,99523.69
2023-04-23T21:23:26.326Z,99569.59
2023-04-23T21:25:56.149Z,99561.28
2023-04-23T21:28:26.217Z,99538.38
2023-04-23T21:30:58.408Z,99553.91
2023-04-23T21:33:28.458Z,99554.84
2023-04-23T21:36:00.781Z,99548.78
2023-04-23T21:38:30.489Z,99545.38
2023-04-23T21:41:00.236Z,99557.34
2023-04-23T21:43:35.556Z,99553.81
2023-04-23T21:46:05.547Z,99554.72
2023-04-23T21:48:35.685Z,99537.63
2023-04-23T21:51:08.353Z,99547.78
2023-04-23T21:53:38.141Z,99542.66
2023-04-23T21:56:08.584Z,99517.31
2023-04-23T21:58:38.484Z,99531.56
2023-04-23T22:01:08.809Z,99514.72
2023-04-23T22:03:42.570Z,99513.38
2023-04-23T22:06:15.812Z,99509.03
2023-04-23T22:08:46.412Z,99525.53
2023-04-23T22:11:17.537Z,99514.13
2023-04-23T22:13:47.504Z,99518.78
2023-04-23T22:16:28.045Z,99500.38
2023-04-23T22:18:58.694Z,99485.25
2023-04-23T22:21:31.575Z,99528.47
2023-04-23T22:24:03.496Z,99502.13
2023-04-23T22:26:34.109Z,99501.31
2023-04-23T22:29:03.920Z,99506.25
2023-04-23T22:31:34.367Z,99496.25
2023-04-23T22:34:04.149Z,99511.47
2023-04-23T22:36:36.685Z,99516.63
2023-04-23T22:39:06.798Z,99501.25
2023-04-23T22:41:38.898Z,99463.13
2023-04-23T22:44:09.479Z,99483.50
2023-04-23T22:46:39.418Z,99467.47
2023-04-23T22:49:11.380Z,99475.81
2023-04-23T22:51:44.005Z,99502.91
2023-04-23T22:54:13.725Z,99479.97
2023-04-23T22:56:43.747Z,99495.50
2023-04-23T22:59:14.269Z,99509.81
2023-04-23T23:01:44.288Z,99496.03
2023-04-23T23:04:14.438Z,99508.59
2023-04-23T23:06:46.824Z,99512.06
2023-04-23T23:09:16.626Z,99520.53
2023-04-23T23:11:46.364Z,99524.03
2023-04-23T23:14:16.993Z,99528.31
2023-04-23T23:16:46.735Z,99512.16
2023-04-23T23:19:16.638Z,99531.16
2023-04-23T23:21:48.980Z,99531.09
2023-04-23T23:24:19.228Z,99503.88
2023-04-23T23:26:49.407Z,99503.03
2023-04-23T23:29:19.494Z,99522.63
2023-04-23T23:31:49.808Z,99515.03
2023-04-23T23:34:19.556Z,99477.72
2023-04-23T23:36:52.100Z,99492.94
2023-04-23T23:39:22.007Z,99521.09
2023-04-23T23:41:51.731Z,99493.97
2023-04-23T23:44:21.513Z,99491.47
2023-04-23T23:46:52.187Z,99506.69
2023-04-23T23:49:22.552Z,99510.97
2023-04-23T23:51:55.001Z,99511.66
2023-04-23T23:54:24.707Z,99510.91
2023-04-23T23:56:55.793Z,99512.50
2023-04-23T23:59:25.999Z,99508.22
